createdAt,value
2022-12-03T00:00:47.802Z,4.22
2022-12-03T00:05:48.323Z,3.80
2022-12-03T00:10:42.521Z,3.95
2022-12-03T00:15:37.178Z,4.13
2022-12-03T00:20:30.387Z,3.63
2022-12-03T00:25:24.047Z,3.40
2022-12-03T00:30:18.306Z,3.50
2022-12-03T00:35:11.490Z,3.17
2022-12-03T00:40:06.069Z,3.30
2022-12-03T00:45:00.354Z,3.33
2022-12-03T00:49:54.535Z,3.38
2022-12-03T00:54:48.359Z,3.30
2022-12-03T00:59:47.037Z,3.20
2022-12-03T01:04:41.196Z,3.28
2022-12-03T01:09:33.930Z,3.20
2022-12-03T01:14:27.113Z,3.15
2022-12-03T01:19:21.423Z,2.90
2022-12-03T01:24:16.127Z,3.10
2022-12-03T01:29:09.585Z,2.90
2022-12-03T01:34:04.790Z,2.42
2022-12-03T01:38:59.226Z,2.60
2022-12-03T01:43:54.130Z,2.97
2022-12-03T01:48:54.730Z,2.85
2022-12-03T01:53:50.415Z,2.75
2022-12-03T01:58:46.596Z,2.58
2022-12-03T02:03:42.123Z,3.03
2022-12-03T02:08:38.663Z,2.97
2022-12-03T02:13:34.098Z,2.72
2022-12-03T02:18:27.598Z,2.97
2022-12-03T02:23:23.611Z,2.53
2022-12-03T02:28:18.218Z,2.58
2022-12-03T02:33:11.217Z,2.53
2022-12-03T02:38:20.662Z,2.53
2022-12-03T02:43:16.742Z,2.47
2022-12-03T02:48:24.161Z,2.45
2022-12-03T02:53:30.960Z,2.33
2022-12-03T02:58:26.739Z,2.17
2022-12-03T03:03:22.434Z,2.15
2022-12-03T03:08:18.049Z,2.17
2022-12-03T03:13:14.644Z,2.58
2022-12-03T03:18:10.033Z,2.42
2022-12-03T03:23:24.422Z,2.20
2022-12-03T03:28:18.531Z,1.98
2022-12-03T03:33:13.701Z,2.03
2022-12-03T03:38:09.130Z,2.20
2022-12-03T03:43:03.486Z,2.45
2022-12-03T03:48:02.623Z,1.88
2022-12-03T03:52:57.046Z,2.13
2022-12-03T03:57:50.534Z,2.15
2022-12-03T04:02:44.233Z,1.95
2022-12-03T04:07:38.582Z,1.92
2022-12-03T04:12:50.395Z,2.10
2022-12-03T04:17:44.056Z,2.20
2022-12-03T04:22:41.378Z,1.73
2022-12-03T04:27:53.849Z,1.90
2022-12-03T04:33:05.363Z,2.00
2022-12-03T04:37:59.376Z,1.75
2022-12-03T04:42:53.808Z,2.15
2022-12-03T04:47:47.666Z,1.63
2022-12-03T04:52:40.896Z,1.92
2022-12-03T04:57:35.231Z,1.60
2022-12-03T05:02:29.291Z,1.80
2022-12-03T05:07:26.298Z,2.05
2022-12-03T05:12:19.701Z,1.67
2022-12-03T05:17:17.198Z,1.73
2022-12-03T05:22:10.841Z,2.00
2022-12-03T05:27:04.108Z,1.65
2022-12-03T05:31:57.633Z,1.60
2022-12-03T05:36:51.808Z,1.77
2022-12-03T05:42:04.207Z,1.95
2022-12-03T05:46:57.758Z,1.75
2022-12-03T05:51:56.698Z,1.70
2022-12-03T05:56:51.246Z,1.83
2022-12-03T06:01:45.319Z,1.50
2022-12-03T06:06:39.144Z,1.50
2022-12-03T06:11:35.086Z,1.70
2022-12-03T06:16:28.970Z,1.65
2022-12-03T06:21:23.165Z,1.70
2022-12-03T06:26:16.526Z,1.50
2022-12-03T06:31:10.356Z,1.77
2022-12-03T06:36:04.174Z,1.70
2022-12-03T06:40:58.240Z,1.70
2022-12-03T06:45:52.078Z,2.28
2022-12-03T06:50:46.042Z,2.40
2022-12-03T06:55:39.727Z,2.40
2022-12-03T07:00:33.473Z,2.65
2022-12-03T07:05:31.001Z,2.80
2022-12-03T07:10:24.850Z,3.08
2022-12-03T07:15:17.370Z,3.08
2022-12-03T07:20:12.790Z,2.83
2022-12-03T07:25:08.625Z,3.35
2022-12-03T07:30:01.695Z,3.17
2022-12-03T07:34:55.337Z,2.67
2022-12-03T07:39:48.614Z,2.70
2022-12-03T07:44:42.271Z,3.05
2022-12-03T07:49:35.810Z,2.17
2022-12-03T07:54:29.778Z,2.30
2022-12-03T07:59:23.939Z,2.05
2022-12-03T08:04:19.375Z,2.17
2022-12-03T08:09:16.041Z,1.85
2022-12-03T08:14:18.883Z,2.08
2022-12-03T08:19:15.563Z,2.22
2022-12-03T08:24:16.821Z,2.17
2022-12-03T08:29:14.057Z,2.97
2022-12-03T08:34:27.275Z,3.15
2022-12-03T08:39:38.270Z,3.75
2022-12-03T08:49:33.085Z,4.63
2022-12-03T08:54:27.310Z,4.65
2022-12-03T08:59:29.145Z,6.43
2022-12-03T09:04:24.513Z,6.38
2022-12-03T09:09:18.929Z,6.43
2022-12-03T09:14:18.477Z,6.00
2022-12-03T09:19:12.318Z,6.17
2022-12-03T09:24:06.378Z,5.85
2022-12-03T09:28:59.495Z,5.60
2022-12-03T09:33:53.277Z,5.50
2022-12-03T09:38:48.146Z,5.20
2022-12-03T09:44:03.274Z,5.07
2022-12-03T09:48:56.287Z,6.00
2022-12-03T09:53:50.778Z,6.00
2022-12-03T09:58:43.961Z,5.72
2022-12-03T10:03:46.802Z,5.30
2022-12-03T10:08:40.855Z,5.95
2022-12-03T10:13:36.802Z,5.35
2022-12-03T10:18:41.268Z,5.45
2022-12-03T10:23:35.381Z,5.30
2022-12-03T10:28:38.600Z,5.80
2022-12-03T10:33:34.075Z,6.07
2022-12-03T10:38:28.036Z,10.20
2022-12-03T10:43:25.832Z,13.82
2022-12-03T10:48:28.238Z,16.63
2022-12-03T10:53:28.504Z,23.23
2022-12-03T10:58:27.083Z,26.02
2022-12-03T11:03:22.615Z,25.75
2022-12-03T11:08:25.103Z,26.13
2022-12-03T11:13:33.369Z,26.95
2022-12-03T11:18:38.937Z,28.90
2022-12-03T11:23:51.783Z,27.80
2022-12-03T11:28:47.362Z,26.67
2022-12-03T11:33:42.423Z,25.55
2022-12-03T11:38:38.054Z,22.25
2022-12-03T11:43:53.031Z,18.52
2022-12-03T11:48:46.917Z,18.27
2022-12-03T11:53:41.758Z,18.33
2022-12-03T11:58:46.218Z,16.85
2022-12-03T12:03:50.075Z,17.23
2022-12-03T12:08:52.722Z,15.98
2022-12-03T12:13:45.700Z,15.48
2022-12-03T12:18:55.419Z,14.10
2022-12-03T12:23:50.369Z,14.02
2022-12-03T12:28:44.519Z,13.45
2022-12-03T12:33:38.037Z,13.35
2022-12-03T12:38:31.928Z,10.82
2022-12-03T12:43:27.666Z,10.55
2022-12-03T12:48:32.370Z,10.30
2022-12-03T12:53:31.050Z,8.68
2022-12-03T12:58:25.818Z,9.23
2022-12-03T13:03:20.842Z,7.88
2022-12-03T13:08:32.401Z,7.72
2022-12-03T13:13:29.774Z,7.60
2022-12-03T13:18:26.185Z,7.97
2022-12-03T13:23:28.334Z,7.20
2022-12-03T13:28:21.434Z,6.80
2022-12-03T13:33:27.462Z,6.30
2022-12-03T13:38:22.706Z,6.65
2022-12-03T13:43:19.293Z,6.40
2022-12-03T13:48:32.065Z,6.25
2022-12-03T13:53:33.615Z,6.10
2022-12-03T13:58:26.969Z,7.65
2022-12-03T14:03:20.879Z,6.10
2022-12-03T14:08:14.138Z,5.60
2022-12-03T14:13:07.812Z,6.03
2022-12-03T14:18:06.040Z,5.72
2022-12-03T14:22:59.781Z,6.25
2022-12-03T14:27:52.889Z,6.28
2022-12-03T14:32:46.377Z,5.82
2022-12-03T14:37:40.064Z,6.03
2022-12-03T14:42:33.775Z,5.38
2022-12-03T14:47:27.953Z,5.60
2022-12-03T14:52:21.249Z,5.03
2022-12-03T14:57:15.929Z,4.95
2022-12-03T15:02:10.688Z,5.03
2022-12-03T15:07:04.819Z,4.65
2022-12-03T15:11:58.611Z,4.57
2022-12-03T15:16:51.804Z,4.70
2022-12-03T15:21:45.910Z,4.00
2022-12-03T15:26:39.274Z,3.67
2022-12-03T15:31:32.922Z,4.60
2022-12-03T15:36:26.094Z,4.47
2022-12-03T15:41:24.450Z,3.90
2022-12-03T15:46:18.158Z,4.10
2022-12-03T15:51:11.895Z,4.15
2022-12-03T15:56:07.374Z,3.50
2022-12-03T16:01:01.431Z,3.92
2022-12-03T16:05:55.072Z,3.20
2022-12-03T16:10:48.226Z,3.53
2022-12-03T16:15:41.762Z,3.17
2022-12-03T16:20:34.942Z,3.38
2022-12-03T16:25:28.512Z,3.25
2022-12-03T16:30:22.529Z,3.42
2022-12-03T16:35:16.087Z,3.30
2022-12-03T16:40:11.309Z,3.40
2022-12-03T16:45:04.310Z,3.13
2022-12-03T16:49:58.753Z,2.72
2022-12-03T16:54:53.017Z,2.80
2022-12-03T16:59:47.410Z,3.08
2022-12-03T17:04:41.108Z,2.67
2022-12-03T17:09:34.384Z,3.22
2022-12-03T17:14:33.042Z,2.20
2022-12-03T17:19:27.599Z,2.83
2022-12-03T17:24:21.709Z,2.70
2022-12-03T17:29:14.958Z,2.67
2022-12-03T17:34:08.687Z,2.63
2022-12-03T17:39:01.659Z,2.33
2022-12-03T17:43:55.417Z,2.63
2022-12-03T17:48:48.242Z,3.25
2022-12-03T17:53:41.998Z,3.03
2022-12-03T17:58:35.808Z,3.22
2022-12-03T18:03:30.160Z,3.15
2022-12-03T18:08:24.183Z,2.90
2022-12-03T18:13:17.731Z,3.15
2022-12-03T18:18:11.426Z,2.90
2022-12-03T18:23:05.103Z,2.95
2022-12-03T18:27:58.623Z,3.05
2022-12-03T18:32:52.474Z,2.80
2022-12-03T18:37:45.041Z,2.63
2022-12-03T18:42:39.482Z,2.80
2022-12-03T18:47:33.598Z,3.03
2022-12-03T18:52:27.035Z,3.80
2022-12-03T18:57:20.521Z,4.30
2022-12-03T19:02:38.991Z,4.35
2022-12-03T19:07:31.283Z,4.90
2022-12-03T19:12:24.766Z,4.90
2022-12-03T19:17:18.662Z,5.63
2022-12-03T19:22:12.438Z,4.40
2022-12-03T19:27:06.195Z,5.10
2022-12-03T19:32:00.253Z,5.20
2022-12-03T19:36:54.126Z,4.72
2022-12-03T19:41:47.593Z,4.32
2022-12-03T19:46:42.206Z,4.50
2022-12-03T19:51:39.342Z,3.95
2022-12-03T19:56:33.861Z,3.80
2022-12-03T20:01:33.708Z,3.80
2022-12-03T20:06:34.160Z,3.87
2022-12-03T20:11:32.316Z,3.63
2022-12-03T20:16:26.988Z,3.67
2022-12-03T20:21:21.145Z,4.00
2022-12-03T20:26:17.625Z,3.95
2022-12-03T20:31:14.308Z,3.90
2022-12-03T20:36:09.599Z,3.60
2022-12-03T20:41:11.258Z,4.05
2022-12-03T20:46:14.112Z,3.90
2022-12-03T20:51:13.633Z,4.00
2022-12-03T20:56:08.400Z,4.35
2022-12-03T21:01:16.706Z,4.18
2022-12-03T21:06:11.167Z,4.32
2022-12-03T21:11:15.858Z,3.78
2022-12-03T21:16:11.319Z,3.65
2022-12-03T21:21:05.485Z,3.80
2022-12-03T21:26:17.685Z,4.20
2022-12-03T21:31:20.462Z,3.78
2022-12-03T21:36:17.798Z,3.85
2022-12-03T21:41:11.357Z,3.60
2022-12-03T21:47:10.206Z,3.80
2022-12-03T21:51:22.357Z,3.60
2022-12-03T21:56:19.118Z,3.38
2022-12-03T22:01:26.977Z,4.22
2022-12-03T22:06:20.912Z,3.58
2022-12-03T22:11:18.283Z,3.67
2022-12-03T22:16:15.240Z,3.70
2022-12-03T22:21:15.154Z,4.25
2022-12-03T22:26:12.380Z,3.30
2022-12-03T22:31:09.983Z,3.70
2022-12-03T22:36:07.241Z,3.75
2022-12-03T22:41:00.974Z,4.32
2022-12-03T22:45:56.009Z,4.30
2022-12-03T22:50:50.646Z,4.57
2022-12-03T22:55:44.179Z,4.43
2022-12-03T23:00:42.525Z,4.28
2022-12-03T23:05:38.981Z,4.65
2022-12-03T23:10:35.438Z,4.25
2022-12-03T23:15:28.958Z,3.92
2022-12-03T23:20:22.493Z,4.00
2022-12-03T23:25:17.565Z,3.90
2022-12-03T23:30:10.986Z,3.65
2022-12-03T23:35:05.119Z,4.03
2022-12-03T23:40:03.152Z,3.67
2022-12-03T23:44:57.466Z,4.20
2022-12-03T23:49:52.038Z,4.03
2022-12-03T23:54:45.826Z,4.25
2022-12-03T23:59:42.830Z,3.78
